sensor_id;sensor_type;location;lat;lon;timestamp;P1;durP1;ratioP1;P2;durP2;ratioP2
65092;SDS011;52025;50.288;2.794;2022-12-10T06:24:59;8.68;;;5.95;;
65092;SDS011;52025;50.288;2.794;2022-12-10T06:30:06;9.50;;;6.30;;
65092;SDS011;52025;50.288;2.794;2022-12-10T06:33:21;9.45;;;6.55;;
65092;SDS011;52025;50.288;2.794;2022-12-10T06:58:16;9.75;;;6.43;;
65092;SDS011;52025;50.288;2.794;2022-12-10T07:04:26;8.48;;;5.78;;
65092;SDS011;52025;50.288;2.794;2022-12-10T07:07:37;8.02;;;5.47;;
65092;SDS011;52025;50.288;2.794;2022-12-10T07:10:23;7.50;;;5.22;;
65092;SDS011;52025;50.288;2.794;2022-12-10T07:12:48;7.80;;;5.60;;
65092;SDS011;52025;50.288;2.794;2022-12-10T07:15:14;8.23;;;6.05;;
65092;SDS011;52025;50.288;2.794;2022-12-10T07:17:39;7.57;;;5.53;;
65092;SDS011;52025;50.288;2.794;2022-12-10T07:20:05;7.80;;;5.93;;
65092;SDS011;52025;50.288;2.794;2022-12-10T07:22:30;8.52;;;6.47;;
65092;SDS011;52025;50.288;2.794;2022-12-10T07:24:55;9.95;;;6.50;;
65092;SDS011;52025;50.288;2.794;2022-12-10T07:27:21;8.63;;;6.40;;
65092;SDS011;52025;50.288;2.794;2022-12-10T07:29:46;8.93;;;6.05;;
65092;SDS011;52025;50.288;2.794;2022-12-10T07:32:11;8.48;;;6.05;;
65092;SDS011;52025;50.288;2.794;2022-12-10T07:34:37;8.68;;;6.38;;
65092;SDS011;52025;50.288;2.794;2022-12-10T07:37:02;10.57;;;6.80;;
65092;SDS011;52025;50.288;2.794;2022-12-10T07:42:33;8.45;;;5.65;;
65092;SDS011;52025;50.288;2.794;2022-12-10T07:45:02;9.10;;;5.95;;
65092;SDS011;52025;50.288;2.794;2022-12-10T07:51:11;9.50;;;6.22;;
65092;SDS011;52025;50.288;2.794;2022-12-10T07:56:31;9.05;;;5.97;;
65092;SDS011;52025;50.288;2.794;2022-12-10T08:04:54;7.82;;;5.15;;
65092;SDS011;52025;50.288;2.794;2022-12-10T08:10:24;8.98;;;5.50;;
65092;SDS011;52025;50.288;2.794;2022-12-10T08:12:49;7.97;;;5.35;;
65092;SDS011;52025;50.288;2.794;2022-12-10T08:15:16;8.00;;;5.47;;
65092;SDS011;52025;50.288;2.794;2022-12-10T08:17:41;9.88;;;6.43;;
65092;SDS011;52025;50.288;2.794;2022-12-10T08:20:07;10.38;;;5.72;;
65092;SDS011;52025;50.288;2.794;2022-12-10T08:22:33;12.45;;;6.57;;
65092;SDS011;52025;50.288;2.794;2022-12-10T08:24:59;7.78;;;5.95;;
65092;SDS011;52025;50.288;2.794;2022-12-10T08:27:24;8.75;;;6.45;;
65092;SDS011;52025;50.288;2.794;2022-12-10T08:29:50;10.45;;;7.28;;
65092;SDS011;52025;50.288;2.794;2022-12-10T08:32:15;9.40;;;6.72;;
65092;SDS011;52025;50.288;2.794;2022-12-10T08:34:40;12.38;;;7.03;;
65092;SDS011;52025;50.288;2.794;2022-12-10T08:37:05;10.77;;;6.90;;
65092;SDS011;52025;50.288;2.794;2022-12-10T08:39:31;10.55;;;7.40;;
65092;SDS011;52025;50.288;2.794;2022-12-10T08:41:56;9.93;;;6.90;;
65092;SDS011;52025;50.288;2.794;2022-12-10T08:44:21;11.10;;;7.45;;
65092;SDS011;52025;50.288;2.794;2022-12-10T08:46:47;10.18;;;7.32;;
65092;SDS011;52025;50.288;2.794;2022-12-10T08:49:12;9.32;;;6.57;;
65092;SDS011;52025;50.288;2.794;2022-12-10T08:51:38;9.52;;;6.68;;
65092;SDS011;52025;50.288;2.794;2022-12-10T08:54:03;9.38;;;6.43;;
65092;SDS011;52025;50.288;2.794;2022-12-10T08:56:28;11.00;;;7.60;;
65092;SDS011;52025;50.288;2.794;2022-12-10T08:58:54;12.52;;;8.23;;
65092;SDS011;52025;50.288;2.794;2022-12-10T09:01:25;11.75;;;7.40;;
65092;SDS011;52025;50.288;2.794;2022-12-10T09:03:53;12.25;;;8.75;;
65092;SDS011;52025;50.288;2.794;2022-12-10T09:06:19;13.20;;;8.25;;
65092;SDS011;52025;50.288;2.794;2022-12-10T09:08:45;12.00;;;8.25;;
65092;SDS011;52025;50.288;2.794;2022-12-10T09:11:14;12.10;;;8.45;;
65092;SDS011;52025;50.288;2.794;2022-12-10T09:13:40;13.15;;;9.35;;
65092;SDS011;52025;50.288;2.794;2022-12-10T09:16:06;10.52;;;7.97;;
65092;SDS011;52025;50.288;2.794;2022-12-10T09:18:31;12.85;;;8.57;;
65092;SDS011;52025;50.288;2.794;2022-12-10T09:20:56;11.38;;;7.72;;
65092;SDS011;52025;50.288;2.794;2022-12-10T09:23:22;11.95;;;8.38;;
65092;SDS011;52025;50.288;2.794;2022-12-10T09:25:47;11.82;;;8.95;;
65092;SDS011;52025;50.288;2.794;2022-12-10T09:28:12;12.60;;;8.70;;
65092;SDS011;52025;50.288;2.794;2022-12-10T09:30:38;14.45;;;10.30;;
65092;SDS011;52025;50.288;2.794;2022-12-10T09:33:03;12.88;;;9.27;;
65092;SDS011;52025;50.288;2.794;2022-12-10T09:35:32;12.80;;;8.60;;
65092;SDS011;52025;50.288;2.794;2022-12-10T09:37:58;13.45;;;8.73;;
65092;SDS011;52025;50.288;2.794;2022-12-10T09:40:32;13.80;;;8.30;;
65092;SDS011;52025;50.288;2.794;2022-12-10T09:43:00;12.30;;;8.07;;
65092;SDS011;52025;50.288;2.794;2022-12-10T09:50:48;11.65;;;7.50;;
65092;SDS011;52025;50.288;2.794;2022-12-10T09:53:18;11.65;;;6.97;;
65092;SDS011;52025;50.288;2.794;2022-12-10T09:55:45;11.88;;;7.25;;
65092;SDS011;52025;50.288;2.794;2022-12-10T09:58:13;15.30;;;7.45;;
65092;SDS011;52025;50.288;2.794;2022-12-10T10:17:52;9.85;;;7.43;;
65092;SDS011;52025;50.288;2.794;2022-12-10T10:20:23;9.93;;;6.90;;
65092;SDS011;52025;50.288;2.794;2022-12-10T10:23:27;11.43;;;6.95;;
65092;SDS011;52025;50.288;2.794;2022-12-10T10:28:51;9.45;;;6.00;;
65092;SDS011;52025;50.288;2.794;2022-12-10T10:34:17;8.20;;;5.43;;
65092;SDS011;52025;50.288;2.794;2022-12-10T10:36:46;7.75;;;5.60;;
65092;SDS011;52025;50.288;2.794;2022-12-10T11:23:46;6.75;;;4.80;;
65092;SDS011;52025;50.288;2.794;2022-12-10T11:56:49;6.82;;;3.92;;
65092;SDS011;52025;50.288;2.794;2022-12-10T12:16:23;9.93;;;5.53;;
65092;SDS011;52025;50.288;2.794;2022-12-10T14:16:41;10.88;;;4.63;;
65092;SDS011;52025;50.288;2.794;2022-12-10T14:36:30;10.23;;;4.82;;
65092;SDS011;52025;50.288;2.794;2022-12-10T15:11:14;10.43;;;6.18;;
65092;SDS011;52025;50.288;2.794;2022-12-10T15:16:49;10.02;;;5.72;;
65092;SDS011;52025;50.288;2.794;2022-12-10T15:31:44;7.63;;;5.03;;
65092;SDS011;52025;50.288;2.794;2022-12-10T15:47:29;10.13;;;6.07;;
65092;SDS011;52025;50.288;2.794;2022-12-10T15:49:29;11.60;;;6.57;;
65092;SDS011;52025;50.288;2.794;2022-12-10T15:52:05;13.90;;;7.88;;
65092;SDS011;52025;50.288;2.794;2022-12-10T15:57:39;11.80;;;6.75;;
65092;SDS011;52025;50.288;2.794;2022-12-10T17:50:32;16.25;;;10.20;;
65092;SDS011;52025;50.288;2.794;2022-12-10T17:53:05;16.77;;;9.30;;
65092;SDS011;52025;50.288;2.794;2022-12-10T17:55:37;14.77;;;10.00;;
65092;SDS011;52025;50.288;2.794;2022-12-10T17:58:09;13.90;;;8.52;;
65092;SDS011;52025;50.288;2.794;2022-12-10T18:00:39;14.82;;;8.65;;
65092;SDS011;52025;50.288;2.794;2022-12-10T18:03:11;17.35;;;10.50;;
65092;SDS011;52025;50.288;2.794;2022-12-10T18:06:07;15.35;;;8.52;;
65092;SDS011;52025;50.288;2.794;2022-12-10T18:08:50;12.25;;;8.63;;
65092;SDS011;52025;50.288;2.794;2022-12-10T18:40:43;13.48;;;8.63;;
65092;SDS011;52025;50.288;2.794;2022-12-10T18:43:09;14.55;;;8.30;;
65092;SDS011;52025;50.288;2.794;2022-12-10T18:45:37;15.50;;;8.43;;
65092;SDS011;52025;50.288;2.794;2022-12-10T18:48:12;12.50;;;9.27;;
65092;SDS011;52025;50.288;2.794;2022-12-10T18:50:45;16.85;;;9.13;;
65092;SDS011;52025;50.288;2.794;2022-12-10T18:53:34;15.15;;;8.98;;
65092;SDS011;52025;50.288;2.794;2022-12-10T18:56:04;13.40;;;8.13;;
65092;SDS011;52025;50.288;2.794;2022-12-10T18:58:32;15.70;;;9.85;;
65092;SDS011;52025;50.288;2.794;2022-12-10T19:04:14;13.43;;;8.32;;
65092;SDS011;52025;50.288;2.794;2022-12-10T19:06:45;13.23;;;8.13;;
65092;SDS011;52025;50.288;2.794;2022-12-10T19:09:32;20.58;;;12.80;;
